sensor_id;sensor_type;location;lat;lon;timestamp;P1;durP1;ratioP1;P2;durP2;ratioP2
20236;SDS011;10277;54.386;18.596;2022-10-16T01:07:59;43.63;;;26.50;;
20236;SDS011;10277;54.386;18.596;2022-10-16T01:28:17;53.28;;;35.08;;
20236;SDS011;10277;54.386;18.596;2022-10-16T01:33:23;42.00;;;27.90;;
20236;SDS011;10277;54.386;18.596;2022-10-16T01:38:34;44.13;;;28.63;;
20236;SDS011;10277;54.386;18.596;2022-10-16T01:43:40;44.17;;;28.67;;
20236;SDS011;10277;54.386;18.596;2022-10-16T02:03:52;38.57;;;29.10;;
20236;SDS011;10277;54.386;18.596;2022-10-16T02:08:55;35.92;;;27.75;;
20236;SDS011;10277;54.386;18.596;2022-10-16T02:14:01;36.27;;;27.00;;
20236;SDS011;10277;54.386;18.596;2022-10-16T02:19:06;29.27;;;20.33;;
20236;SDS011;10277;54.386;18.596;2022-10-16T02:24:16;32.00;;;22.10;;
20236;SDS011;10277;54.386;18.596;2022-10-16T02:29:22;42.97;;;30.37;;
20236;SDS011;10277;54.386;18.596;2022-10-16T02:34:26;29.40;;;21.50;;
20236;SDS011;10277;54.386;18.596;2022-10-16T02:39:29;31.53;;;22.00;;
20236;SDS011;10277;54.386;18.596;2022-10-16T02:44:32;29.00;;;21.53;;
20236;SDS011;10277;54.386;18.596;2022-10-16T02:49:34;30.47;;;21.60;;
20236;SDS011;10277;54.386;18.596;2022-10-16T02:54:37;29.73;;;21.80;;
20236;SDS011;10277;54.386;18.596;2022-10-16T02:59:40;30.30;;;21.73;;
20236;SDS011;10277;54.386;18.596;2022-10-16T03:04:43;28.80;;;21.27;;
20236;SDS011;10277;54.386;18.596;2022-10-16T03:09:46;29.07;;;21.17;;
20236;SDS011;10277;54.386;18.596;2022-10-16T03:14:48;27.90;;;21.87;;
20236;SDS011;10277;54.386;18.596;2022-10-16T03:19:52;27.63;;;21.03;;
20236;SDS011;10277;54.386;18.596;2022-10-16T03:24:54;29.87;;;21.40;;
20236;SDS011;10277;54.386;18.596;2022-10-16T03:29:57;35.63;;;26.20;;
20236;SDS011;10277;54.386;18.596;2022-10-16T03:35:00;31.70;;;23.83;;
20236;SDS011;10277;54.386;18.596;2022-10-16T03:40:02;30.57;;;21.97;;
20236;SDS011;10277;54.386;18.596;2022-10-16T03:45:05;30.27;;;22.40;;
20236;SDS011;10277;54.386;18.596;2022-10-16T03:50:08;28.93;;;21.77;;
20236;SDS011;10277;54.386;18.596;2022-10-16T04:00:14;32.17;;;26.17;;
20236;SDS011;10277;54.386;18.596;2022-10-16T05:10:51;37.60;;;29.87;;
20236;SDS011;10277;54.386;18.596;2022-10-16T05:15:54;39.27;;;31.00;;
20236;SDS011;10277;54.386;18.596;2022-10-16T05:20:57;39.67;;;31.30;;
20236;SDS011;10277;54.386;18.596;2022-10-16T07:37:14;45.30;;;38.83;;
20236;SDS011;10277;54.386;18.596;2022-10-16T07:42:16;46.97;;;36.20;;
20236;SDS011;10277;54.386;18.596;2022-10-16T07:47:21;48.53;;;36.13;;
20236;SDS011;10277;54.386;18.596;2022-10-16T07:52:25;43.83;;;33.23;;
20236;SDS011;10277;54.386;18.596;2022-10-16T07:57:28;44.27;;;33.70;;
20236;SDS011;10277;54.386;18.596;2022-10-16T08:02:31;47.13;;;35.20;;
20236;SDS011;10277;54.386;18.596;2022-10-16T08:07:35;47.67;;;34.87;;
20236;SDS011;10277;54.386;18.596;2022-10-16T08:12:37;45.37;;;32.13;;
20236;SDS011;10277;54.386;18.596;2022-10-16T08:17:40;43.20;;;31.70;;
20236;SDS011;10277;54.386;18.596;2022-10-16T08:22:43;43.80;;;32.83;;
20236;SDS011;10277;54.386;18.596;2022-10-16T08:27:45;42.73;;;32.27;;
20236;SDS011;10277;54.386;18.596;2022-10-16T08:32:48;43.70;;;30.97;;
20236;SDS011;10277;54.386;18.596;2022-10-16T08:37:51;42.87;;;31.37;;
20236;SDS011;10277;54.386;18.596;2022-10-16T08:48:09;39.43;;;28.63;;
20236;SDS011;10277;54.386;18.596;2022-10-16T08:53:16;42.20;;;30.53;;
20236;SDS011;10277;54.386;18.596;2022-10-16T08:58:26;37.10;;;27.63;;
20236;SDS011;10277;54.386;18.596;2022-10-16T09:03:40;35.47;;;26.57;;
20236;SDS011;10277;54.386;18.596;2022-10-16T09:24:23;33.50;;;25.13;;
20236;SDS011;10277;54.386;18.596;2022-10-16T09:29:30;35.37;;;25.03;;
20236;SDS011;10277;54.386;18.596;2022-10-16T09:34:34;33.23;;;25.87;;
20236;SDS011;10277;54.386;18.596;2022-10-16T09:39:48;43.27;;;26.77;;
20236;SDS011;10277;54.386;18.596;2022-10-16T09:44:51;38.63;;;26.77;;
20236;SDS011;10277;54.386;18.596;2022-10-16T09:55:15;43.77;;;29.73;;
20236;SDS011;10277;54.386;18.596;2022-10-16T10:00:18;33.97;;;25.13;;
20236;SDS011;10277;54.386;18.596;2022-10-16T10:05:22;31.90;;;24.13;;
20236;SDS011;10277;54.386;18.596;2022-10-16T10:10:28;31.40;;;23.47;;
20236;SDS011;10277;54.386;18.596;2022-10-16T10:15:33;33.03;;;24.70;;
20236;SDS011;10277;54.386;18.596;2022-10-16T10:20:36;29.77;;;23.33;;
20236;SDS011;10277;54.386;18.596;2022-10-16T10:30:45;35.27;;;25.30;;
20236;SDS011;10277;54.386;18.596;2022-10-16T10:46:02;30.50;;;23.67;;
20236;SDS011;10277;54.386;18.596;2022-10-16T10:51:07;36.37;;;26.67;;
20236;SDS011;10277;54.386;18.596;2022-10-16T11:01:22;34.67;;;24.23;;
20236;SDS011;10277;54.386;18.596;2022-10-16T11:07:03;32.63;;;26.23;;
20236;SDS011;10277;54.386;18.596;2022-10-16T11:12:17;29.90;;;22.77;;
20236;SDS011;10277;54.386;18.596;2022-10-16T11:17:31;30.53;;;23.73;;
20236;SDS011;10277;54.386;18.596;2022-10-16T11:22:38;27.07;;;22.80;;
20236;SDS011;10277;54.386;18.596;2022-10-16T11:27:54;26.87;;;21.00;;
20236;SDS011;10277;54.386;18.596;2022-10-16T11:38:13;23.73;;;19.37;;
20236;SDS011;10277;54.386;18.596;2022-10-16T11:43:28;25.83;;;18.73;;
20236;SDS011;10277;54.386;18.596;2022-10-16T11:58:54;20.40;;;18.10;;
20236;SDS011;10277;54.386;18.596;2022-10-16T12:09:05;18.00;;;15.37;;
20236;SDS011;10277;54.386;18.596;2022-10-16T12:19:14;18.33;;;14.90;;
20236;SDS011;10277;54.386;18.596;2022-10-16T12:24:37;15.97;;;14.27;;
20236;SDS011;10277;54.386;18.596;2022-10-16T12:29:40;18.00;;;14.17;;
20236;SDS011;10277;54.386;18.596;2022-10-16T12:34:47;17.70;;;13.17;;
20236;SDS011;10277;54.386;18.596;2022-10-16T12:39:51;15.93;;;14.23;;
20236;SDS011;10277;54.386;18.596;2022-10-16T12:44:54;14.43;;;12.00;;
20236;SDS011;10277;54.386;18.596;2022-10-16T12:49:57;15.63;;;11.70;;
20236;SDS011;10277;54.386;18.596;2022-10-16T12:55:01;11.27;;;9.70;;
20236;SDS011;10277;54.386;18.596;2022-10-16T13:15:37;11.50;;;9.27;;
20236;SDS011;10277;54.386;18.596;2022-10-16T13:31:13;7.53;;;6.83;;
20236;SDS011;10277;54.386;18.596;2022-10-16T13:36:22;7.97;;;7.17;;
20236;SDS011;10277;54.386;18.596;2022-10-16T13:41:25;9.10;;;7.43;;
20236;SDS011;10277;54.386;18.596;2022-10-16T13:46:28;8.53;;;7.40;;
20236;SDS011;10277;54.386;18.596;2022-10-16T13:51:32;10.97;;;7.60;;
20236;SDS011;10277;54.386;18.596;2022-10-16T13:56:35;9.43;;;8.50;;
20236;SDS011;10277;54.386;18.596;2022-10-16T14:01:49;11.00;;;6.97;;
20236;SDS011;10277;54.386;18.596;2022-10-16T14:08:15;8.80;;;6.80;;
20236;SDS011;10277;54.386;18.596;2022-10-16T14:19:46;8.67;;;7.77;;
20236;SDS011;10277;54.386;18.596;2022-10-16T14:25:24;9.57;;;8.57;;
20236;SDS011;10277;54.386;18.596;2022-10-16T14:31:03;12.93;;;10.30;;
20236;SDS011;10277;54.386;18.596;2022-10-16T14:36:50;9.33;;;8.33;;
20236;SDS011;10277;54.386;18.596;2022-10-16T14:43:49;9.70;;;8.67;;
20236;SDS011;10277;54.386;18.596;2022-10-16T14:49:00;10.70;;;7.60;;
20236;SDS011;10277;54.386;18.596;2022-10-16T14:54:04;12.20;;;11.00;;
20236;SDS011;10277;54.386;18.596;2022-10-16T14:59:07;10.50;;;9.40;;
20236;SDS011;10277;54.386;18.596;2022-10-16T15:04:12;9.40;;;8.40;;
20236;SDS011;10277;54.386;18.596;2022-10-16T15:09:16;10.53;;;8.87;;
20236;SDS011;10277;54.386;18.596;2022-10-16T15:14:19;9.20;;;8.30;;
20236;SDS011;10277;54.386;18.596;2022-10-16T15:19:22;14.30;;;12.77;;
20236;SDS011;10277;54.386;18.596;2022-10-16T15:24:25;12.27;;;10.70;;
20236;SDS011;10277;54.386;18.596;2022-10-16T15:29:27;13.02;;;11.13;;
20236;SDS011;10277;54.386;18.596;2022-10-16T15:34:30;12.93;;;11.63;;
20236;SDS011;10277;54.386;18.596;2022-10-16T15:39:33;13.65;;;12.35;;
20236;SDS011;10277;54.386;18.596;2022-10-16T15:44:42;14.77;;;13.30;;
20236;SDS011;10277;54.386;18.596;2022-10-16T15:49:45;14.23;;;12.93;;
20236;SDS011;10277;54.386;18.596;2022-10-16T15:54:48;28.27;;;25.27;;
20236;SDS011;10277;54.386;18.596;2022-10-16T15:59:56;18.70;;;16.90;;
20236;SDS011;10277;54.386;18.596;2022-10-16T16:04:58;19.35;;;16.60;;
20236;SDS011;10277;54.386;18.596;2022-10-16T16:10:01;16.48;;;14.75;;
20236;SDS011;10277;54.386;18.596;2022-10-16T16:15:05;16.30;;;14.68;;
20236;SDS011;10277;54.386;18.596;2022-10-16T16:20:09;15.87;;;14.17;;
20236;SDS011;10277;54.386;18.596;2022-10-16T16:25:12;17.17;;;13.53;;
20236;SDS011;10277;54.386;18.596;2022-10-16T16:30:14;18.10;;;13.57;;
20236;SDS011;10277;54.386;18.596;2022-10-16T16:35:21;19.57;;;15.20;;
20236;SDS011;10277;54.386;18.596;2022-10-16T16:40:24;20.47;;;14.00;;
20236;SDS011;10277;54.386;18.596;2022-10-16T16:45:27;17.70;;;14.93;;
20236;SDS011;10277;54.386;18.596;2022-10-16T16:50:35;19.90;;;16.73;;
20236;SDS011;10277;54.386;18.596;2022-10-16T17:00:46;38.77;;;21.23;;
20236;SDS011;10277;54.386;18.596;2022-10-16T17:05:59;75.97;;;45.53;;
20236;SDS011;10277;54.386;18.596;2022-10-16T17:11:02;24.30;;;18.73;;
20236;SDS011;10277;54.386;18.596;2022-10-16T17:16:07;23.93;;;18.13;;
20236;SDS011;10277;54.386;18.596;2022-10-16T17:21:10;22.57;;;18.50;;
20236;SDS011;10277;54.386;18.596;2022-10-16T17:26:14;26.20;;;19.23;;
20236;SDS011;10277;54.386;18.596;2022-10-16T17:31:18;28.03;;;19.50;;
20236;SDS011;10277;54.386;18.596;2022-10-16T17:36:22;24.63;;;19.00;;
20236;SDS011;10277;54.386;18.596;2022-10-16T17:41:26;26.00;;;19.43;;
20236;SDS011;10277;54.386;18.596;2022-10-16T17:46:29;24.87;;;18.70;;
20236;SDS011;10277;54.386;18.596;2022-10-16T17:51:32;24.10;;;18.97;;
20236;SDS011;10277;54.386;18.596;2022-10-16T17:56:35;28.07;;;19.83;;
20236;SDS011;10277;54.386;18.596;2022-10-16T18:01:38;28.10;;;20.60;;
20236;SDS011;10277;54.386;18.596;2022-10-16T18:06:46;31.00;;;20.37;;
20236;SDS011;10277;54.386;18.596;2022-10-16T18:11:49;33.20;;;22.43;;
20236;SDS011;10277;54.386;18.596;2022-10-16T18:16:57;29.77;;;21.43;;
20236;SDS011;10277;54.386;18.596;2022-10-16T18:22:00;27.80;;;20.53;;
20236;SDS011;10277;54.386;18.596;2022-10-16T18:27:03;47.60;;;30.20;;
20236;SDS011;10277;54.386;18.596;2022-10-16T18:32:06;158.70;;;91.60;;
20236;SDS011;10277;54.386;18.596;2022-10-16T18:37:09;35.93;;;24.13;;
20236;SDS011;10277;54.386;18.596;2022-10-16T18:42:11;23.70;;;19.13;;
20236;SDS011;10277;54.386;18.596;2022-10-16T18:47:14;29.00;;;23.60;;
20236;SDS011;10277;54.386;18.596;2022-10-16T18:52:17;23.47;;;19.63;;
20236;SDS011;10277;54.386;18.596;2022-10-16T18:57:20;26.23;;;20.60;;
20236;SDS011;10277;54.386;18.596;2022-10-16T19:02:22;23.03;;;18.70;;
20236;SDS011;10277;54.386;18.596;2022-10-16T19:07:25;27.20;;;21.73;;
20236;SDS011;10277;54.386;18.596;2022-10-16T19:12:28;32.23;;;28.10;;
20236;SDS011;10277;54.386;18.596;2022-10-16T19:17:31;27.30;;;21.77;;
20236;SDS011;10277;54.386;18.596;2022-10-16T19:22:34;24.13;;;21.50;;
20236;SDS011;10277;54.386;18.596;2022-10-16T19:27:54;23.13;;;18.40;;
20236;SDS011;10277;54.386;18.596;2022-10-16T19:32:56;30.23;;;23.73;;
20236;SDS011;10277;54.386;18.596;2022-10-16T19:37:59;17.67;;;15.77;;
20236;SDS011;10277;54.386;18.596;2022-10-16T19:43:02;18.90;;;15.10;;
20236;SDS011;10277;54.386;18.596;2022-10-16T19:48:05;20.53;;;16.33;;
20236;SDS011;10277;54.386;18.596;2022-10-16T19:53:08;28.53;;;25.00;;
20236;SDS011;10277;54.386;18.596;2022-10-16T19:58:11;26.77;;;23.97;;
20236;SDS011;10277;54.386;18.596;2022-10-16T20:03:15;25.67;;;21.57;;
20236;SDS011;10277;54.386;18.596;2022-10-16T20:08:18;20.87;;;16.53;;
20236;SDS011;10277;54.386;18.596;2022-10-16T20:13:21;22.50;;;17.47;;
20236;SDS011;10277;54.386;18.596;2022-10-16T20:18:23;23.13;;;17.73;;
20236;SDS011;10277;54.386;18.596;2022-10-16T20:23:26;18.57;;;14.87;;
20236;SDS011;10277;54.386;18.596;2022-10-16T20:28:29;18.87;;;14.33;;
20236;SDS011;10277;54.386;18.596;2022-10-16T20:33:31;20.63;;;14.23;;
20236;SDS011;10277;54.386;18.596;2022-10-16T20:38:35;19.17;;;13.40;;
20236;SDS011;10277;54.386;18.596;2022-10-16T20:43:39;16.83;;;12.37;;
20236;SDS011;10277;54.386;18.596;2022-10-16T20:48:42;16.10;;;12.10;;
20236;SDS011;10277;54.386;18.596;2022-10-16T20:53:53;14.23;;;11.40;;
20236;SDS011;10277;54.386;18.596;2022-10-16T20:58:56;14.47;;;12.50;;
20236;SDS011;10277;54.386;18.596;2022-10-16T21:03:59;14.67;;;10.83;;
20236;SDS011;10277;54.386;18.596;2022-10-16T21:09:03;15.60;;;10.70;;
20236;SDS011;10277;54.386;18.596;2022-10-16T21:14:07;12.83;;;11.07;;
20236;SDS011;10277;54.386;18.596;2022-10-16T21:19:10;17.90;;;11.67;;
20236;SDS011;10277;54.386;18.596;2022-10-16T21:24:13;12.90;;;10.83;;
20236;SDS011;10277;54.386;18.596;2022-10-16T21:29:18;12.63;;;10.37;;
20236;SDS011;10277;54.386;18.596;2022-10-16T21:34:21;13.87;;;10.67;;
20236;SDS011;10277;54.386;18.596;2022-10-16T21:39:24;10.83;;;9.23;;
20236;SDS011;10277;54.386;18.596;2022-10-16T21:44:27;11.57;;;9.23;;
20236;SDS011;10277;54.386;18.596;2022-10-16T21:49:29;10.20;;;8.47;;
20236;SDS011;10277;54.386;18.596;2022-10-16T21:54:32;9.73;;;8.13;;
20236;SDS011;10277;54.386;18.596;2022-10-16T21:59:35;11.77;;;8.30;;
20236;SDS011;10277;54.386;18.596;2022-10-16T22:04:38;7.90;;;7.10;;
20236;SDS011;10277;54.386;18.596;2022-10-16T22:09:40;9.67;;;7.40;;
20236;SDS011;10277;54.386;18.596;2022-10-16T22:14:43;7.53;;;6.43;;
20236;SDS011;10277;54.386;18.596;2022-10-16T22:19:46;8.93;;;7.27;;
20236;SDS011;10277;54.386;18.596;2022-10-16T22:24:49;12.23;;;9.37;;
20236;SDS011;10277;54.386;18.596;2022-10-16T22:29:51;10.07;;;8.60;;
20236;SDS011;10277;54.386;18.596;2022-10-16T22:34:54;10.40;;;8.73;;
20236;SDS011;10277;54.386;18.596;2022-10-16T22:39:57;9.53;;;7.70;;
20236;SDS011;10277;54.386;18.596;2022-10-16T22:45:02;8.73;;;7.53;;
20236;SDS011;10277;54.386;18.596;2022-10-16T22:50:05;9.33;;;7.17;;
20236;SDS011;10277;54.386;18.596;2022-10-16T22:55:08;8.83;;;7.30;;
20236;SDS011;10277;54.386;18.596;2022-10-16T23:00:12;12.30;;;8.60;;
20236;SDS011;10277;54.386;18.596;2022-10-16T23:05:15;14.07;;;8.13;;
20236;SDS011;10277;54.386;18.596;2022-10-16T23:10:17;9.00;;;7.63;;
20236;SDS011;10277;54.386;18.596;2022-10-16T23:15:20;8.40;;;7.50;;
20236;SDS011;10277;54.386;18.596;2022-10-16T23:20:23;11.90;;;7.70;;
20236;SDS011;10277;54.386;18.596;2022-10-16T23:25:26;9.00;;;7.40;;
20236;SDS011;10277;54.386;18.596;2022-10-16T23:30:29;11.73;;;7.67;;
20236;SDS011;10277;54.386;18.596;2022-10-16T23:35:32;11.17;;;7.63;;
20236;SDS011;10277;54.386;18.596;2022-10-16T23:40:35;9.30;;;7.47;;
20236;SDS011;10277;54.386;18.596;2022-10-16T23:45:38;10.03;;;7.93;;
20236;SDS011;10277;54.386;18.596;2022-10-16T23:50:40;14.47;;;8.50;;
20236;SDS011;10277;54.386;18.596;2022-10-16T23:55:43;11.07;;;8.50;;
